sensor_id;sensor_type;location;lat;lon;timestamp;temperature;humidity
44271;DHT22;29963;44.594;11.368;2023-03-14T00:01:12;13.20;99.90
44271;DHT22;29963;44.594;11.368;2023-03-14T00:03:38;13.20;99.90
44271;DHT22;29963;44.594;11.368;2023-03-14T00:06:05;13.10;99.90
44271;DHT22;29963;44.594;11.368;2023-03-14T00:08:30;13.10;99.90
44271;DHT22;29963;44.594;11.368;2023-03-14T00:10:56;13.00;99.90
44271;DHT22;29963;44.594;11.368;2023-03-14T00:13:23;13.00;99.90
44271;DHT22;29963;44.594;11.368;2023-03-14T00:15:49;13.00;99.90
44271;DHT22;29963;44.594;11.368;2023-03-14T00:18:14;13.00;99.90
44271;DHT22;29963;44.594;11.368;2023-03-14T00:20:40;13.00;99.90
44271;DHT22;29963;44.594;11.368;2023-03-14T00:23:06;12.90;99.90
44271;DHT22;29963;44.594;11.368;2023-03-14T00:25:32;12.90;99.90
44271;DHT22;29963;44.594;11.368;2023-03-14T00:27:57;12.80;99.90
44271;DHT22;29963;44.594;11.368;2023-03-14T00:30:23;12.80;99.90
44271;DHT22;29963;44.594;11.368;2023-03-14T00:32:49;12.80;99.90
44271;DHT22;29963;44.594;11.368;2023-03-14T00:35:15;12.70;99.90
44271;DHT22;29963;44.594;11.368;2023-03-14T00:37:41;12.70;99.90
44271;DHT22;29963;44.594;11.368;2023-03-14T00:40:07;12.70;99.90
44271;DHT22;29963;44.594;11.368;2023-03-14T00:42:33;12.60;99.90
44271;DHT22;29963;44.594;11.368;2023-03-14T00:44:59;12.60;99.90
44271;DHT22;29963;44.594;11.368;2023-03-14T00:47:25;12.60;99.90
44271;DHT22;29963;44.594;11.368;2023-03-14T00:49:51;12.60;99.90
44271;DHT22;29963;44.594;11.368;2023-03-14T00:52:16;12.60;99.90
44271;DHT22;29963;44.594;11.368;2023-03-14T00:54:42;12.50;99.90
44271;DHT22;29963;44.594;11.368;2023-03-14T00:57:07;12.50;99.90
44271;DHT22;29963;44.594;11.368;2023-03-14T00:59:33;12.50;99.90
44271;DHT22;29963;44.594;11.368;2023-03-14T01:01:59;12.50;99.90
44271;DHT22;29963;44.594;11.368;2023-03-14T01:04:24;12.50;99.90
44271;DHT22;29963;44.594;11.368;2023-03-14T01:06:50;12.50;99.90
44271;DHT22;29963;44.594;11.368;2023-03-14T01:09:16;12.50;99.90
44271;DHT22;29963;44.594;11.368;2023-03-14T01:11:43;12.50;99.90
44271;DHT22;29963;44.594;11.368;2023-03-14T01:14:12;12.50;99.90
44271;DHT22;29963;44.594;11.368;2023-03-14T01:16:37;12.50;99.90
44271;DHT22;29963;44.594;11.368;2023-03-14T01:19:03;12.40;99.90
44271;DHT22;29963;44.594;11.368;2023-03-14T01:21:32;12.40;99.90
44271;DHT22;29963;44.594;11.368;2023-03-14T01:23:59;12.30;99.90
44271;DHT22;29963;44.594;11.368;2023-03-14T01:26:27;12.40;99.90
44271;DHT22;29963;44.594;11.368;2023-03-14T01:28:55;12.50;99.90
44271;DHT22;29963;44.594;11.368;2023-03-14T01:31:21;12.60;99.90
44271;DHT22;29963;44.594;11.368;2023-03-14T01:33:46;12.80;99.90
44271;DHT22;29963;44.594;11.368;2023-03-14T01:36:12;13.00;99.90
44271;DHT22;29963;44.594;11.368;2023-03-14T01:38:39;13.20;99.90
44271;DHT22;29963;44.594;11.368;2023-03-14T01:41:06;13.30;99.90
44271;DHT22;29963;44.594;11.368;2023-03-14T01:43:31;13.40;99.90
44271;DHT22;29963;44.594;11.368;2023-03-14T01:49:34;13.60;99.90
44271;DHT22;29963;44.594;11.368;2023-03-14T01:56:59;13.80;99.90
44271;DHT22;29963;44.594;11.368;2023-03-14T01:59:27;13.80;99.90
44271;DHT22;29963;44.594;11.368;2023-03-14T02:01:55;13.90;99.90
44271;DHT22;29963;44.594;11.368;2023-03-14T02:04:21;13.90;99.90
44271;DHT22;29963;44.594;11.368;2023-03-14T02:06:55;14.00;99.90
44271;DHT22;29963;44.594;11.368;2023-03-14T02:09:23;14.00;99.90
44271;DHT22;29963;44.594;11.368;2023-03-14T02:11:49;14.00;99.90
44271;DHT22;29963;44.594;11.368;2023-03-14T02:14:31;14.00;99.90
44271;DHT22;29963;44.594;11.368;2023-03-14T02:16:58;14.00;99.90
44271;DHT22;29963;44.594;11.368;2023-03-14T02:22:07;14.10;99.90
44271;DHT22;29963;44.594;11.368;2023-03-14T02:27:41;14.10;99.90
44271;DHT22;29963;44.594;11.368;2023-03-14T02:30:10;14.10;99.90
44271;DHT22;29963;44.594;11.368;2023-03-14T02:32:39;14.10;99.90
44271;DHT22;29963;44.594;11.368;2023-03-14T02:35:18;14.10;99.90
44271;DHT22;29963;44.594;11.368;2023-03-14T02:37:53;14.10;99.90
44271;DHT22;29963;44.594;11.368;2023-03-14T02:40:21;14.10;99.90
44271;DHT22;29963;44.594;11.368;2023-03-14T02:42:46;14.00;99.90
44271;DHT22;29963;44.594;11.368;2023-03-14T02:47:50;14.00;99.90
44271;DHT22;29963;44.594;11.368;2023-03-14T02:50:20;13.90;99.90
44271;DHT22;29963;44.594;11.368;2023-03-14T02:52:47;14.00;99.90
44271;DHT22;29963;44.594;11.368;2023-03-14T02:55:13;14.00;99.90
44271;DHT22;29963;44.594;11.368;2023-03-14T02:57:38;14.00;99.90
44271;DHT22;29963;44.594;11.368;2023-03-14T03:00:04;14.00;99.90
44271;DHT22;29963;44.594;11.368;2023-03-14T03:02:31;14.00;99.90
44271;DHT22;29963;44.594;11.368;2023-03-14T03:04:56;14.00;99.90
44271;DHT22;29963;44.594;11.368;2023-03-14T03:07:25;14.10;99.90
44271;DHT22;29963;44.594;11.368;2023-03-14T03:09:50;14.10;99.90
44271;DHT22;29963;44.594;11.368;2023-03-14T03:12:16;14.10;99.90
44271;DHT22;29963;44.594;11.368;2023-03-14T03:14:45;14.10;99.90
44271;DHT22;29963;44.594;11.368;2023-03-14T03:17:10;14.10;99.90
44271;DHT22;29963;44.594;11.368;2023-03-14T03:19:36;14.00;99.90
44271;DHT22;29963;44.594;11.368;2023-03-14T03:22:01;14.00;99.90
44271;DHT22;29963;44.594;11.368;2023-03-14T03:24:27;14.00;99.90
44271;DHT22;29963;44.594;11.368;2023-03-14T03:26:53;14.00;99.90
44271;DHT22;29963;44.594;11.368;2023-03-14T03:29:18;14.00;99.90
44271;DHT22;29963;44.594;11.368;2023-03-14T03:31:44;14.10;99.90
44271;DHT22;29963;44.594;11.368;2023-03-14T03:34:12;14.10;99.90
44271;DHT22;29963;44.594;11.368;2023-03-14T03:36:38;14.10;99.90
44271;DHT22;29963;44.594;11.368;2023-03-14T03:39:03;14.10;99.90
44271;DHT22;29963;44.594;11.368;2023-03-14T03:41:30;14.10;99.90
44271;DHT22;29963;44.594;11.368;2023-03-14T03:43:56;14.10;99.90
44271;DHT22;29963;44.594;11.368;2023-03-14T03:46:22;14.20;99.90
44271;DHT22;29963;44.594;11.368;2023-03-14T03:48:47;14.20;99.90
44271;DHT22;29963;44.594;11.368;2023-03-14T03:51:16;14.20;99.90
44271;DHT22;29963;44.594;11.368;2023-03-14T03:53:42;14.20;99.90
44271;DHT22;29963;44.594;11.368;2023-03-14T03:56:09;14.20;99.90
44271;DHT22;29963;44.594;11.368;2023-03-14T03:58:34;14.20;99.90
44271;DHT22;29963;44.594;11.368;2023-03-14T04:01:00;14.30;99.90
44271;DHT22;29963;44.594;11.368;2023-03-14T04:03:26;14.30;99.90
44271;DHT22;29963;44.594;11.368;2023-03-14T04:05:59;14.20;99.90
44271;DHT22;29963;44.594;11.368;2023-03-14T04:08:25;14.20;99.90
44271;DHT22;29963;44.594;11.368;2023-03-14T04:10:57;14.20;99.90
44271;DHT22;29963;44.594;11.368;2023-03-14T04:13:24;14.20;99.90
44271;DHT22;29963;44.594;11.368;2023-03-14T04:15:50;14.20;99.90
44271;DHT22;29963;44.594;11.368;2023-03-14T04:18:15;14.20;99.90
44271;DHT22;29963;44.594;11.368;2023-03-14T04:20:41;14.20;99.90
44271;DHT22;29963;44.594;11.368;2023-03-14T04:23:06;14.20;99.90
44271;DHT22;29963;44.594;11.368;2023-03-14T04:25:32;14.20;99.90
44271;DHT22;29963;44.594;11.368;2023-03-14T04:27:57;14.20;99.90
44271;DHT22;29963;44.594;11.368;2023-03-14T04:30:23;14.10;99.90
44271;DHT22;29963;44.594;11.368;2023-03-14T04:32:49;14.10;99.90
44271;DHT22;29963;44.594;11.368;2023-03-14T04:35:14;14.10;99.90
44271;DHT22;29963;44.594;11.368;2023-03-14T04:37:40;14.10;99.90
44271;DHT22;29963;44.594;11.368;2023-03-14T04:40:07;14.10;99.90
44271;DHT22;29963;44.594;11.368;2023-03-14T04:42:33;14.00;99.90
44271;DHT22;29963;44.594;11.368;2023-03-14T04:45:02;14.00;99.90
44271;DHT22;29963;44.594;11.368;2023-03-14T04:47:28;14.00;99.90
44271;DHT22;29963;44.594;11.368;2023-03-14T04:49:54;14.00;99.90
44271;DHT22;29963;44.594;11.368;2023-03-14T04:52:20;14.00;99.90
44271;DHT22;29963;44.594;11.368;2023-03-14T04:54:45;14.00;99.90
44271;DHT22;29963;44.594;11.368;2023-03-14T04:57:11;14.00;99.90
44271;DHT22;29963;44.594;11.368;2023-03-14T04:59:36;14.00;99.90
44271;DHT22;29963;44.594;11.368;2023-03-14T05:02:02;14.00;99.90
44271;DHT22;29963;44.594;11.368;2023-03-14T05:04:27;13.90;99.90
44271;DHT22;29963;44.594;11.368;2023-03-14T05:06:54;13.90;99.90
44271;DHT22;29963;44.594;11.368;2023-03-14T05:09:20;13.80;99.90
44271;DHT22;29963;44.594;11.368;2023-03-14T05:11:45;13.80;99.90
44271;DHT22;29963;44.594;11.368;2023-03-14T05:14:11;13.80;99.90
44271;DHT22;29963;44.594;11.368;2023-03-14T05:16:37;13.80;99.90
44271;DHT22;29963;44.594;11.368;2023-03-14T05:19:02;13.80;99.90
44271;DHT22;29963;44.594;11.368;2023-03-14T05:21:28;13.90;99.90
44271;DHT22;29963;44.594;11.368;2023-03-14T05:23:53;13.90;99.90
44271;DHT22;29963;44.594;11.368;2023-03-14T05:26:19;13.90;99.90
44271;DHT22;29963;44.594;11.368;2023-03-14T05:28:45;13.90;99.90
44271;DHT22;29963;44.594;11.368;2023-03-14T05:31:10;13.90;99.90
44271;DHT22;29963;44.594;11.368;2023-03-14T05:33:36;13.90;99.90
44271;DHT22;29963;44.594;11.368;2023-03-14T05:36:02;13.80;99.90
44271;DHT22;29963;44.594;11.368;2023-03-14T05:38:28;13.80;99.90
44271;DHT22;29963;44.594;11.368;2023-03-14T05:40:53;13.80;99.90
44271;DHT22;29963;44.594;11.368;2023-03-14T05:43:19;13.80;99.90
44271;DHT22;29963;44.594;11.368;2023-03-14T05:45:44;13.90;99.90
44271;DHT22;29963;44.594;11.368;2023-03-14T05:48:10;14.00;99.90
44271;DHT22;29963;44.594;11.368;2023-03-14T05:50:36;14.00;99.90
44271;DHT22;29963;44.594;11.368;2023-03-14T05:53:02;14.10;99.90
44271;DHT22;29963;44.594;11.368;2023-03-14T05:55:28;14.10;99.90
44271;DHT22;29963;44.594;11.368;2023-03-14T05:57:54;14.10;99.90
44271;DHT22;29963;44.594;11.368;2023-03-14T06:00:20;14.20;99.90
44271;DHT22;29963;44.594;11.368;2023-03-14T06:02:46;14.30;99.90
44271;DHT22;29963;44.594;11.368;2023-03-14T06:05:14;14.30;99.90
44271;DHT22;29963;44.594;11.368;2023-03-14T06:07:40;14.30;99.90
44271;DHT22;29963;44.594;11.368;2023-03-14T06:10:06;14.40;99.90
44271;DHT22;29963;44.594;11.368;2023-03-14T06:12:35;14.50;99.90
44271;DHT22;29963;44.594;11.368;2023-03-14T06:15:01;14.50;99.90
44271;DHT22;29963;44.594;11.368;2023-03-14T06:17:26;14.60;99.90
44271;DHT22;29963;44.594;11.368;2023-03-14T06:19:52;14.70;99.90
44271;DHT22;29963;44.594;11.368;2023-03-14T06:22:17;14.80;99.90
44271;DHT22;29963;44.594;11.368;2023-03-14T06:24:44;14.80;99.90
44271;DHT22;29963;44.594;11.368;2023-03-14T06:27:10;14.90;99.90
44271;DHT22;29963;44.594;11.368;2023-03-14T06:29:35;15.00;99.90
44271;DHT22;29963;44.594;11.368;2023-03-14T06:32:01;15.10;99.90
44271;DHT22;29963;44.594;11.368;2023-03-14T06:34:26;15.10;99.90
44271;DHT22;29963;44.594;11.368;2023-03-14T06:36:52;15.20;99.90
44271;DHT22;29963;44.594;11.368;2023-03-14T06:39:18;15.30;99.90
44271;DHT22;29963;44.594;11.368;2023-03-14T06:41:43;15.30;99.90
44271;DHT22;29963;44.594;11.368;2023-03-14T06:44:09;15.40;99.90
44271;DHT22;29963;44.594;11.368;2023-03-14T06:46:34;15.50;99.90
44271;DHT22;29963;44.594;11.368;2023-03-14T06:49:00;15.50;99.90
44271;DHT22;29963;44.594;11.368;2023-03-14T06:51:25;15.50;99.90
44271;DHT22;29963;44.594;11.368;2023-03-14T06:53:51;15.50;99.90
44271;DHT22;29963;44.594;11.368;2023-03-14T06:56:16;15.60;99.90
44271;DHT22;29963;44.594;11.368;2023-03-14T06:58:42;15.60;99.90
44271;DHT22;29963;44.594;11.368;2023-03-14T07:01:20;15.70;99.90
44271;DHT22;29963;44.594;11.368;2023-03-14T07:03:46;15.70;99.90
44271;DHT22;29963;44.594;11.368;2023-03-14T07:06:11;15.80;99.90
44271;DHT22;29963;44.594;11.368;2023-03-14T07:08:37;15.90;99.90
44271;DHT22;29963;44.594;11.368;2023-03-14T07:11:04;15.90;99.90
44271;DHT22;29963;44.594;11.368;2023-03-14T07:13:30;15.90;99.90
44271;DHT22;29963;44.594;11.368;2023-03-14T07:15:56;16.00;99.90
44271;DHT22;29963;44.594;11.368;2023-03-14T07:18:21;16.00;99.90
44271;DHT22;29963;44.594;11.368;2023-03-14T07:20:47;16.10;99.90
44271;DHT22;29963;44.594;11.368;2023-03-14T07:23:13;16.20;99.90
44271;DHT22;29963;44.594;11.368;2023-03-14T07:25:38;16.20;99.90
44271;DHT22;29963;44.594;11.368;2023-03-14T07:28:04;16.30;99.90
44271;DHT22;29963;44.594;11.368;2023-03-14T07:30:33;16.30;99.90
44271;DHT22;29963;44.594;11.368;2023-03-14T07:32:58;16.40;99.90
44271;DHT22;29963;44.594;11.368;2023-03-14T07:35:24;16.50;99.90
44271;DHT22;29963;44.594;11.368;2023-03-14T07:37:49;16.60;99.90
44271;DHT22;29963;44.594;11.368;2023-03-14T07:40:15;16.60;99.90
44271;DHT22;29963;44.594;11.368;2023-03-14T07:42:42;16.70;99.90
44271;DHT22;29963;44.594;11.368;2023-03-14T07:45:09;16.70;99.90
44271;DHT22;29963;44.594;11.368;2023-03-14T07:47:35;16.80;99.90
44271;DHT22;29963;44.594;11.368;2023-03-14T07:50:01;16.90;99.90
44271;DHT22;29963;44.594;11.368;2023-03-14T07:52:27;16.90;99.90
44271;DHT22;29963;44.594;11.368;2023-03-14T07:54:53;16.90;99.90
44271;DHT22;29963;44.594;11.368;2023-03-14T07:57:18;16.90;99.90
44271;DHT22;29963;44.594;11.368;2023-03-14T07:59:44;16.90;99.90
44271;DHT22;29963;44.594;11.368;2023-03-14T08:02:13;17.00;99.90
44271;DHT22;29963;44.594;11.368;2023-03-14T08:04:39;17.00;99.90
44271;DHT22;29963;44.594;11.368;2023-03-14T08:07:05;16.90;99.90
44271;DHT22;29963;44.594;11.368;2023-03-14T08:09:31;16.90;99.90
44271;DHT22;29963;44.594;11.368;2023-03-14T08:11:57;17.00;99.90
44271;DHT22;29963;44.594;11.368;2023-03-14T08:14:22;17.00;99.90
44271;DHT22;29963;44.594;11.368;2023-03-14T08:16:51;17.00;99.90
44271;DHT22;29963;44.594;11.368;2023-03-14T08:19:16;17.00;99.90
44271;DHT22;29963;44.594;11.368;2023-03-14T08:21:42;16.90;99.90
44271;DHT22;29963;44.594;11.368;2023-03-14T08:24:08;16.80;99.90
44271;DHT22;29963;44.594;11.368;2023-03-14T08:26:34;16.60;99.90
44271;DHT22;29963;44.594;11.368;2023-03-14T08:28:59;16.60;99.90
44271;DHT22;29963;44.594;11.368;2023-03-14T08:31:25;16.60;99.90
44271;DHT22;29963;44.594;11.368;2023-03-14T08:33:51;16.50;99.90
44271;DHT22;29963;44.594;11.368;2023-03-14T08:36:18;16.50;99.90
44271;DHT22;29963;44.594;11.368;2023-03-14T08:38:44;16.50;99.90
44271;DHT22;29963;44.594;11.368;2023-03-14T08:41:10;16.60;99.90
44271;DHT22;29963;44.594;11.368;2023-03-14T08:43:36;16.60;99.90
44271;DHT22;29963;44.594;11.368;2023-03-14T08:46:02;16.70;99.90
44271;DHT22;29963;44.594;11.368;2023-03-14T08:48:31;16.80;99.90
44271;DHT22;29963;44.594;11.368;2023-03-14T08:51:03;16.80;99.90
44271;DHT22;29963;44.594;11.368;2023-03-14T08:53:29;16.70;99.90
44271;DHT22;29963;44.594;11.368;2023-03-14T08:55:54;16.70;99.90
44271;DHT22;29963;44.594;11.368;2023-03-14T08:58:20;16.70;99.90
44271;DHT22;29963;44.594;11.368;2023-03-14T09:00:48;16.80;99.90
44271;DHT22;29963;44.594;11.368;2023-03-14T09:03:13;16.90;99.90
44271;DHT22;29963;44.594;11.368;2023-03-14T09:05:39;17.00;99.90
44271;DHT22;29963;44.594;11.368;2023-03-14T09:08:05;17.00;99.90
44271;DHT22;29963;44.594;11.368;2023-03-14T09:10:31;17.00;99.90
44271;DHT22;29963;44.594;11.368;2023-03-14T09:12:56;17.00;99.90
44271;DHT22;29963;44.594;11.368;2023-03-14T09:15:26;16.90;99.90
44271;DHT22;29963;44.594;11.368;2023-03-14T09:17:51;16.80;99.90
44271;DHT22;29963;44.594;11.368;2023-03-14T09:20:17;16.70;99.90
44271;DHT22;29963;44.594;11.368;2023-03-14T09:22:43;16.60;99.90
44271;DHT22;29963;44.594;11.368;2023-03-14T09:25:09;16.50;99.90
44271;DHT22;29963;44.594;11.368;2023-03-14T09:27:35;16.40;99.90
44271;DHT22;29963;44.594;11.368;2023-03-14T09:30:01;16.40;99.90
44271;DHT22;29963;44.594;11.368;2023-03-14T09:32:26;16.50;99.90
44271;DHT22;29963;44.594;11.368;2023-03-14T09:34:52;16.50;99.90
44271;DHT22;29963;44.594;11.368;2023-03-14T09:37:17;16.60;99.90
44271;DHT22;29963;44.594;11.368;2023-03-14T09:39:45;16.60;99.90
44271;DHT22;29963;44.594;11.368;2023-03-14T09:42:16;16.70;99.90
44271;DHT22;29963;44.594;11.368;2023-03-14T09:44:56;16.70;99.90
44271;DHT22;29963;44.594;11.368;2023-03-14T09:47:23;16.70;99.90
44271;DHT22;29963;44.594;11.368;2023-03-14T09:49:49;16.70;99.90
44271;DHT22;29963;44.594;11.368;2023-03-14T09:52:31;16.80;99.90
44271;DHT22;29963;44.594;11.368;2023-03-14T09:55:22;16.80;99.90
44271;DHT22;29963;44.594;11.368;2023-03-14T09:57:49;16.90;99.90
44271;DHT22;29963;44.594;11.368;2023-03-14T10:00:20;17.00;99.90
44271;DHT22;29963;44.594;11.368;2023-03-14T10:02:53;17.00;99.90
44271;DHT22;29963;44.594;11.368;2023-03-14T10:05:22;17.00;99.90
44271;DHT22;29963;44.594;11.368;2023-03-14T10:07:48;17.10;99.90
44271;DHT22;29963;44.594;11.368;2023-03-14T10:12:46;17.20;99.90
44271;DHT22;29963;44.594;11.368;2023-03-14T10:15:13;17.20;99.90
44271;DHT22;29963;44.594;11.368;2023-03-14T10:17:47;17.30;99.90
44271;DHT22;29963;44.594;11.368;2023-03-14T10:20:35;17.40;99.90
44271;DHT22;29963;44.594;11.368;2023-03-14T10:25:44;17.40;99.90
44271;DHT22;29963;44.594;11.368;2023-03-14T10:28:27;17.40;99.90
44271;DHT22;29963;44.594;11.368;2023-03-14T10:30:54;17.50;99.90
44271;DHT22;29963;44.594;11.368;2023-03-14T10:33:31;17.50;99.90
44271;DHT22;29963;44.594;11.368;2023-03-14T10:36:10;17.60;99.90
44271;DHT22;29963;44.594;11.368;2023-03-14T10:38:40;17.60;99.90
44271;DHT22;29963;44.594;11.368;2023-03-14T10:41:24;17.60;99.90
44271;DHT22;29963;44.594;11.368;2023-03-14T10:43:56;17.60;99.90
44271;DHT22;29963;44.594;11.368;2023-03-14T10:46:25;17.70;99.90
44271;DHT22;29963;44.594;11.368;2023-03-14T10:48:52;17.90;99.90
44271;DHT22;29963;44.594;11.368;2023-03-14T10:51:29;18.00;99.90
44271;DHT22;29963;44.594;11.368;2023-03-14T10:53:59;18.10;99.90
44271;DHT22;29963;44.594;11.368;2023-03-14T10:56:27;18.00;99.90
44271;DHT22;29963;44.594;11.368;2023-03-14T10:58:56;18.10;99.90
44271;DHT22;29963;44.594;11.368;2023-03-14T11:01:48;18.20;99.90
44271;DHT22;29963;44.594;11.368;2023-03-14T11:07:28;18.50;99.90
44271;DHT22;29963;44.594;11.368;2023-03-14T11:10:31;18.60;99.90
44271;DHT22;29963;44.594;11.368;2023-03-14T11:13:15;18.60;99.90
44271;DHT22;29963;44.594;11.368;2023-03-14T11:26:58;18.20;99.90
44271;DHT22;29963;44.594;11.368;2023-03-14T11:31:58;18.10;99.90
44271;DHT22;29963;44.594;11.368;2023-03-14T11:34:29;18.00;99.90
44271;DHT22;29963;44.594;11.368;2023-03-14T11:37:15;17.90;99.90
44271;DHT22;29963;44.594;11.368;2023-03-14T11:39:47;17.90;99.90
44271;DHT22;29963;44.594;11.368;2023-03-14T11:42:16;17.80;99.90
44271;DHT22;29963;44.594;11.368;2023-03-14T11:44:46;17.80;99.90
44271;DHT22;29963;44.594;11.368;2023-03-14T11:47:37;17.80;99.90
44271;DHT22;29963;44.594;11.368;2023-03-14T11:52:44;17.70;99.90
44271;DHT22;29963;44.594;11.368;2023-03-14T11:57:48;17.70;99.90
44271;DHT22;29963;44.594;11.368;2023-03-14T12:00:19;17.80;99.90
44271;DHT22;29963;44.594;11.368;2023-03-14T12:05:25;18.10;99.90
44271;DHT22;29963;44.594;11.368;2023-03-14T12:08:25;18.20;99.90
44271;DHT22;29963;44.594;11.368;2023-03-14T12:10:59;18.30;99.90
44271;DHT22;29963;44.594;11.368;2023-03-14T12:13:36;18.30;99.90
44271;DHT22;29963;44.594;11.368;2023-03-14T12:16:06;18.30;99.90
44271;DHT22;29963;44.594;11.368;2023-03-14T12:18:35;18.30;99.90
44271;DHT22;29963;44.594;11.368;2023-03-14T12:21:07;18.30;99.90
44271;DHT22;29963;44.594;11.368;2023-03-14T12:23:44;18.40;99.90
44271;DHT22;29963;44.594;11.368;2023-03-14T12:28:37;18.50;99.90
44271;DHT22;29963;44.594;11.368;2023-03-14T12:45:24;18.90;99.90
44271;DHT22;29963;44.594;11.368;2023-03-14T12:47:53;19.10;99.90
44271;DHT22;29963;44.594;11.368;2023-03-14T12:50:24;19.20;99.90
44271;DHT22;29963;44.594;11.368;2023-03-14T12:55:56;19.30;99.90
44271;DHT22;29963;44.594;11.368;2023-03-14T12:58:29;19.40;99.90
44271;DHT22;29963;44.594;11.368;2023-03-14T13:00:59;19.40;99.90
44271;DHT22;29963;44.594;11.368;2023-03-14T13:03:36;19.40;99.90
44271;DHT22;29963;44.594;11.368;2023-03-14T13:06:03;19.50;99.90
44271;DHT22;29963;44.594;11.368;2023-03-14T13:08:44;19.50;99.90
44271;DHT22;29963;44.594;11.368;2023-03-14T13:11:16;19.50;99.90
44271;DHT22;29963;44.594;11.368;2023-03-14T13:13:57;19.50;99.90
44271;DHT22;29963;44.594;11.368;2023-03-14T13:16:23;19.50;99.90
44271;DHT22;29963;44.594;11.368;2023-03-14T13:18:58;19.50;99.90
44271;DHT22;29963;44.594;11.368;2023-03-14T13:21:27;19.40;99.90
44271;DHT22;29963;44.594;11.368;2023-03-14T13:24:07;19.40;99.90
44271;DHT22;29963;44.594;11.368;2023-03-14T13:26:43;19.50;99.90
44271;DHT22;29963;44.594;11.368;2023-03-14T13:29:21;19.50;99.90
44271;DHT22;29963;44.594;11.368;2023-03-14T13:31:49;19.50;99.90
44271;DHT22;29963;44.594;11.368;2023-03-14T13:34:15;19.50;99.90
44271;DHT22;29963;44.594;11.368;2023-03-14T13:36:42;19.50;99.90
44271;DHT22;29963;44.594;11.368;2023-03-14T13:39:13;19.50;99.90
44271;DHT22;29963;44.594;11.368;2023-03-14T13:41:40;19.50;99.90
44271;DHT22;29963;44.594;11.368;2023-03-14T13:44:08;19.50;99.90
44271;DHT22;29963;44.594;11.368;2023-03-14T13:46:35;19.50;99.90
44271;DHT22;29963;44.594;11.368;2023-03-14T13:49:06;19.50;99.90
44271;DHT22;29963;44.594;11.368;2023-03-14T13:51:34;19.50;99.90
44271;DHT22;29963;44.594;11.368;2023-03-14T13:54:03;19.50;99.90
44271;DHT22;29963;44.594;11.368;2023-03-14T13:56:31;19.50;99.90
44271;DHT22;29963;44.594;11.368;2023-03-14T13:58:57;19.50;99.90
44271;DHT22;29963;44.594;11.368;2023-03-14T14:01:34;19.50;99.90
44271;DHT22;29963;44.594;11.368;2023-03-14T14:04:15;19.50;99.90
44271;DHT22;29963;44.594;11.368;2023-03-14T14:06:46;19.60;99.90
44271;DHT22;29963;44.594;11.368;2023-03-14T14:09:31;19.50;99.90
44271;DHT22;29963;44.594;11.368;2023-03-14T14:12:11;19.40;99.90
44271;DHT22;29963;44.594;11.368;2023-03-14T14:14:45;19.40;99.90
44271;DHT22;29963;44.594;11.368;2023-03-14T14:17:15;19.30;99.90
44271;DHT22;29963;44.594;11.368;2023-03-14T14:19:43;19.20;99.90
44271;DHT22;29963;44.594;11.368;2023-03-14T14:22:10;19.20;99.90
44271;DHT22;29963;44.594;11.368;2023-03-14T14:24:36;19.20;99.90
44271;DHT22;29963;44.594;11.368;2023-03-14T14:27:19;19.20;99.90
44271;DHT22;29963;44.594;11.368;2023-03-14T14:29:58;19.20;99.90
44271;DHT22;29963;44.594;11.368;2023-03-14T14:32:25;19.20;99.90
44271;DHT22;29963;44.594;11.368;2023-03-14T14:34:58;19.30;99.90
44271;DHT22;29963;44.594;11.368;2023-03-14T14:37:29;19.50;99.90
44271;DHT22;29963;44.594;11.368;2023-03-14T14:40:06;19.70;99.90
44271;DHT22;29963;44.594;11.368;2023-03-14T14:42:33;20.10;99.90
44271;DHT22;29963;44.594;11.368;2023-03-14T14:44:59;20.50;99.90
44271;DHT22;29963;44.594;11.368;2023-03-14T14:47:26;20.90;99.90
44271;DHT22;29963;44.594;11.368;2023-03-14T14:49:55;21.40;99.90
44271;DHT22;29963;44.594;11.368;2023-03-14T14:52:43;22.20;99.90
44271;DHT22;29963;44.594;11.368;2023-03-14T14:55:33;22.90;99.90
44271;DHT22;29963;44.594;11.368;2023-03-14T14:58:29;24.10;99.90
44271;DHT22;29963;44.594;11.368;2023-03-14T15:01:07;25.60;98.80
44271;DHT22;29963;44.594;11.368;2023-03-14T15:03:34;27.00;97.10
44271;DHT22;29963;44.594;11.368;2023-03-14T15:06:01;28.00;95.00
44271;DHT22;29963;44.594;11.368;2023-03-14T15:08:28;28.90;92.50
44271;DHT22;29963;44.594;11.368;2023-03-14T15:10:55;28.90;91.40
44271;DHT22;29963;44.594;11.368;2023-03-14T15:13:21;28.70;90.60
44271;DHT22;29963;44.594;11.368;2023-03-14T15:15:46;28.70;90.60
44271;DHT22;29963;44.594;11.368;2023-03-14T15:18:17;28.50;90.20
44271;DHT22;29963;44.594;11.368;2023-03-14T15:20:44;28.10;90.40
44271;DHT22;29963;44.594;11.368;2023-03-14T15:23:15;27.50;90.30
44271;DHT22;29963;44.594;11.368;2023-03-14T15:25:41;27.20;91.10
44271;DHT22;29963;44.594;11.368;2023-03-14T15:28:27;27.30;90.60
44271;DHT22;29963;44.594;11.368;2023-03-14T15:30:56;27.20;90.20
44271;DHT22;29963;44.594;11.368;2023-03-14T15:33:23;26.80;90.40
44271;DHT22;29963;44.594;11.368;2023-03-14T15:35:49;26.80;90.40
44271;DHT22;29963;44.594;11.368;2023-03-14T15:38:18;26.70;90.00
44271;DHT22;29963;44.594;11.368;2023-03-14T15:40:49;26.10;90.30
44271;DHT22;29963;44.594;11.368;2023-03-14T15:43:16;25.30;91.20
44271;DHT22;29963;44.594;11.368;2023-03-14T15:45:42;24.60;91.90
44271;DHT22;29963;44.594;11.368;2023-03-14T15:48:19;23.80;92.90
44271;DHT22;29963;44.594;11.368;2023-03-14T15:50:44;23.10;94.00
44271;DHT22;29963;44.594;11.368;2023-03-14T15:53:11;22.60;94.60
44271;DHT22;29963;44.594;11.368;2023-03-14T15:55:36;22.20;95.40
44271;DHT22;29963;44.594;11.368;2023-03-14T15:58:02;21.90;96.00
44271;DHT22;29963;44.594;11.368;2023-03-14T16:00:29;21.60;96.50
44271;DHT22;29963;44.594;11.368;2023-03-14T16:02:54;21.40;96.90
44271;DHT22;29963;44.594;11.368;2023-03-14T16:05:20;21.20;96.90
44271;DHT22;29963;44.594;11.368;2023-03-14T16:07:46;21.00;97.50
44271;DHT22;29963;44.594;11.368;2023-03-14T16:10:13;20.90;97.90
44271;DHT22;29963;44.594;11.368;2023-03-14T16:12:40;20.90;98.20
44271;DHT22;29963;44.594;11.368;2023-03-14T16:15:08;20.90;98.30
44271;DHT22;29963;44.594;11.368;2023-03-14T16:17:34;21.10;98.70
44271;DHT22;29963;44.594;11.368;2023-03-14T16:20:00;21.30;98.50
44271;DHT22;29963;44.594;11.368;2023-03-14T16:22:26;21.40;98.30
44271;DHT22;29963;44.594;11.368;2023-03-14T16:24:52;21.40;98.10
44271;DHT22;29963;44.594;11.368;2023-03-14T16:27:17;21.20;98.30
44271;DHT22;29963;44.594;11.368;2023-03-14T16:29:43;21.10;98.70